Deer Park, Louisiana
Current Conditions -  °F | °C
As of 10:35 AM on Thursday 18 Dec 2014 (Local Time) from KHEZ Reporting Station
Overcast Overcast  
Wind Chill: 52°   Ceiling: 2500
Heat Index: 52°   Visibility: 8mi
Dew Point: 43°   Wind: 6mph
Humidity: 71%   Direction: 30°NNE
Pressure: 30.19"   Gusts: NA
Location:  31.5712°N, 91.5148°W
Report Text: KHEZ 181635Z AUTO 03005KT 8SM SCT017 OVC025 11/06 A3019 RMK AO1
Loading
Personal Weather Stations






























Interactive Weather Map New forecast layout! Learn more

10-Day Weather Forecast

Advertisements
Track Severe Weather on mobile